Archival Weather

NSFA McMurdo Sound

NSFA McMurdo Sound, Antarctica (NZCM)

Report from: Friday, September 23, 2022 7:55 AM UTC
Current time: Sunday, December 4, 2022 12:49 PM UTC

Current weather
Weather history
Weather forecast

Present weatherLight snow, mist
Temperature-20.5°C (-4.9°F)
Wind chill-30.7°C (-23.2°F)
Dew point-24.5°C (-12.1°F)
Winds 10 kts (5.1 m/s, 11.5 mph) Vrb
Wind gusts 23 kts (11.8 m/s, 26.5 mph)
Winds variableWinds variable from East-Northeast (60°) to South-Southwest (210°)
Visibility1.5 mi. (2.4 km)
Clouds Ceiling: Overcast 600 ft. (183 m)
Altimeter28.67 in.Hg (971 mB)
Relative humidity70 %
Density altitude-3,035 ft. (-925 m)
Sea-level pressure107.1 kPa (1071 mB, 31.64 in.Hg)
Remarks Fully automated report
System requires maintenance
Automated weather observing station with precipitation discriminator
Flight conditions Instrument Meteorological Conditions
Raw dataNZCM 230755Z AUTO 11010G23KT 060V210 2400 -SN BR OVC006 M20/M25 A2867 RMK AO2 SLP714 T12051245 $
An error has occurred. This application may no longer respond until reloaded. Reload 🗙